createdAt,value
2023-04-30T00:00:59.741Z,17.33
2023-04-30T00:03:07.197Z,16.55
2023-04-30T00:05:14.870Z,16.40
2023-04-30T00:07:24.150Z,18.77
2023-04-30T00:09:31.444Z,16.52
2023-04-30T00:11:40.510Z,17.85
2023-04-30T00:13:48.152Z,19.02
2023-04-30T00:15:55.566Z,17.40
2023-04-30T00:18:08.551Z,19.55
2023-04-30T00:20:16.719Z,16.52
2023-04-30T00:22:24.256Z,15.82
2023-04-30T00:24:31.540Z,17.48
2023-04-30T00:26:41.126Z,16.20
2023-04-30T00:28:48.315Z,17.60
2023-04-30T00:30:55.904Z,15.60
2023-04-30T00:33:03.385Z,17.42
2023-04-30T00:35:12.475Z,18.65
2023-04-30T00:37:21.077Z,18.60
2023-04-30T00:39:28.854Z,17.98
2023-04-30T00:41:38.255Z,16.38
2023-04-30T00:43:48.061Z,16.95
2023-04-30T00:45:55.328Z,18.00
2023-04-30T00:48:03.801Z,17.98
2023-04-30T00:50:14.356Z,18.50
2023-04-30T00:52:21.949Z,23.63
2023-04-30T00:54:29.897Z,21.33
2023-04-30T00:56:37.544Z,23.15
2023-04-30T00:58:47.177Z,23.05
2023-04-30T01:00:55.622Z,23.35
2023-04-30T01:03:03.626Z,21.73
2023-04-30T01:05:11.898Z,17.77
2023-04-30T01:07:19.188Z,18.60
2023-04-30T01:09:26.922Z,17.15
2023-04-30T01:11:43.736Z,17.83
2023-04-30T01:13:57.571Z,16.48
2023-04-30T01:16:21.452Z,16.20
2023-04-30T01:18:34.735Z,16.80
2023-04-30T01:20:47.228Z,18.75
2023-04-30T01:22:59.982Z,17.77
2023-04-30T01:25:21.031Z,18.90
2023-04-30T01:27:45.687Z,17.88
2023-04-30T01:29:57.108Z,18.95
2023-04-30T01:32:06.445Z,18.38
2023-04-30T01:34:13.738Z,20.90
2023-04-30T01:36:40.420Z,15.60
2023-04-30T01:39:06.492Z,22.33
2023-04-30T01:41:21.410Z,20.27
2023-04-30T01:43:39.189Z,20.83
2023-04-30T01:46:01.107Z,18.50
2023-04-30T01:48:20.633Z,18.90
2023-04-30T01:50:41.001Z,19.38
2023-04-30T01:52:59.884Z,18.08
2023-04-30T01:55:15.669Z,20.55
2023-04-30T01:57:30.937Z,18.90
2023-04-30T01:59:41.807Z,17.55
2023-04-30T02:01:51.794Z,16.58
2023-04-30T02:03:59.303Z,18.83
2023-04-30T02:06:07.065Z,18.25
2023-04-30T02:08:14.992Z,17.30
2023-04-30T02:10:24.326Z,17.90
2023-04-30T02:12:32.478Z,18.23
2023-04-30T02:14:40.214Z,18.08
2023-04-30T02:16:47.617Z,17.92
2023-04-30T02:18:58.570Z,18.52
2023-04-30T02:21:09.289Z,18.10
2023-04-30T02:23:19.385Z,17.45
2023-04-30T02:25:27.335Z,21.85
2023-04-30T02:27:37.996Z,17.80
2023-04-30T02:29:45.393Z,19.85
2023-04-30T02:31:52.811Z,19.13
2023-04-30T02:34:02.319Z,21.40
2023-04-30T02:36:10.156Z,18.38
2023-04-30T02:38:38.481Z,18.05
2023-04-30T02:40:47.077Z,19.13
2023-04-30T02:42:56.070Z,18.10
2023-04-30T02:45:03.290Z,19.40
2023-04-30T02:47:10.740Z,17.33
2023-04-30T02:49:20.029Z,20.95
2023-04-30T02:51:27.971Z,19.80
2023-04-30T02:53:35.128Z,19.58
2023-04-30T02:55:48.887Z,17.10
2023-04-30T02:57:56.224Z,17.20
2023-04-30T03:00:03.817Z,17.23
2023-04-30T03:02:11.220Z,20.00
2023-04-30T03:04:20.532Z,18.52
2023-04-30T03:06:28.155Z,15.98
2023-04-30T03:08:35.766Z,17.38
2023-04-30T03:10:43.209Z,16.75
2023-04-30T03:12:50.893Z,20.48
2023-04-30T03:14:58.422Z,17.50
2023-04-30T03:17:06.130Z,20.13
2023-04-30T03:19:13.311Z,16.95
2023-04-30T03:21:22.489Z,16.88
2023-04-30T03:23:34.486Z,18.08
2023-04-30T03:25:42.282Z,17.25
2023-04-30T03:27:49.528Z,16.67
2023-04-30T03:29:57.273Z,19.30
2023-04-30T03:32:10.382Z,17.63
2023-04-30T03:34:21.234Z,19.48
2023-04-30T03:36:31.145Z,18.95
2023-04-30T03:38:38.441Z,19.00
2023-04-30T03:40:45.608Z,15.85
2023-04-30T03:42:53.359Z,16.38
2023-04-30T03:45:00.697Z,19.42
2023-04-30T03:47:08.350Z,15.95
2023-04-30T03:49:15.516Z,17.45
2023-04-30T03:51:30.330Z,16.95
2023-04-30T03:53:39.562Z,15.70
2023-04-30T03:55:47.455Z,16.10
2023-04-30T03:57:55.511Z,19.83
2023-04-30T04:00:03.100Z,19.35
2023-04-30T04:02:26.991Z,17.40
2023-04-30T04:04:36.273Z,15.70
2023-04-30T04:06:43.788Z,18.63
2023-04-30T04:08:53.133Z,16.38
2023-04-30T04:11:10.292Z,17.45
2023-04-30T04:13:22.083Z,14.75
2023-04-30T04:15:29.213Z,15.67
2023-04-30T04:17:36.666Z,17.25
2023-04-30T04:19:52.293Z,13.65
2023-04-30T04:22:00.611Z,15.85
2023-04-30T04:24:11.053Z,16.92
2023-04-30T04:26:20.687Z,13.93
2023-04-30T04:28:28.389Z,15.18
2023-04-30T04:30:36.385Z,16.42
2023-04-30T04:32:47.998Z,17.92
2023-04-30T04:34:58.063Z,15.75
2023-04-30T04:37:05.242Z,15.63
2023-04-30T04:39:14.580Z,15.23
2023-04-30T04:41:22.014Z,15.10
2023-04-30T04:43:29.557Z,16.67
2023-04-30T04:45:36.939Z,13.90
2023-04-30T04:47:44.420Z,14.88
2023-04-30T04:49:51.754Z,14.52
2023-04-30T04:51:59.454Z,14.88
2023-04-30T04:54:06.855Z,13.48
2023-04-30T04:56:16.025Z,13.73
2023-04-30T04:58:24.241Z,15.95
2023-04-30T05:00:32.487Z,14.10
2023-04-30T05:02:39.843Z,14.57
2023-04-30T05:04:48.071Z,13.82
2023-04-30T05:06:55.664Z,13.55
2023-04-30T05:09:03.717Z,14.60
2023-04-30T05:11:10.848Z,13.40
2023-04-30T05:13:20.236Z,13.13
2023-04-30T05:15:27.614Z,11.68
2023-04-30T05:17:35.342Z,11.43
2023-04-30T05:19:42.545Z,11.15
2023-04-30T05:21:49.990Z,11.85
2023-04-30T05:23:57.432Z,11.00
2023-04-30T05:26:04.907Z,13.55
2023-04-30T05:28:12.464Z,11.55
2023-04-30T05:30:21.573Z,10.07
2023-04-30T05:32:30.615Z,12.25
2023-04-30T05:34:37.786Z,10.70
2023-04-30T05:36:45.221Z,10.07
2023-04-30T05:38:52.712Z,9.15
2023-04-30T05:41:00.268Z,9.57
2023-04-30T05:43:07.532Z,9.45
2023-04-30T05:45:18.244Z,10.05
2023-04-30T05:47:27.337Z,11.27
2023-04-30T05:49:36.277Z,10.00
2023-04-30T05:51:43.629Z,10.45
2023-04-30T05:53:51.018Z,9.75
2023-04-30T05:55:58.277Z,10.00
2023-04-30T05:58:06.308Z,10.32
2023-04-30T06:00:14.303Z,10.52
2023-04-30T06:02:21.966Z,9.55
2023-04-30T06:04:31.892Z,10.18
2023-04-30T06:06:39.335Z,11.18
2023-04-30T06:08:46.615Z,8.02
2023-04-30T06:10:55.383Z,9.80
2023-04-30T06:13:02.823Z,9.77
2023-04-30T06:15:11.344Z,9.38
2023-04-30T06:17:18.485Z,9.20
2023-04-30T06:19:25.903Z,9.88
2023-04-30T06:21:35.032Z,9.15
2023-04-30T06:23:42.365Z,9.25
2023-04-30T06:25:49.752Z,10.13
2023-04-30T06:27:57.171Z,8.65
2023-04-30T06:30:04.628Z,7.80
2023-04-30T06:32:11.817Z,8.60
2023-04-30T06:34:19.023Z,7.75
2023-04-30T06:36:26.480Z,9.68
2023-04-30T06:38:35.505Z,9.13
2023-04-30T06:40:43.044Z,10.07
2023-04-30T06:42:50.279Z,10.38
2023-04-30T06:44:58.174Z,9.65
2023-04-30T06:47:05.366Z,9.52
2023-04-30T06:49:12.754Z,10.07
2023-04-30T06:51:19.872Z,10.63
2023-04-30T06:53:27.568Z,8.32
2023-04-30T06:55:36.386Z,9.00
2023-04-30T06:57:43.983Z,12.13
2023-04-30T06:59:51.271Z,10.18
2023-04-30T07:01:58.743Z,9.50
2023-04-30T07:04:06.134Z,9.13
2023-04-30T07:06:13.809Z,10.38
2023-04-30T07:08:21.059Z,9.00
2023-04-30T07:10:28.849Z,9.23
2023-04-30T07:12:37.733Z,8.90
2023-04-30T07:14:45.582Z,9.05
2023-04-30T07:16:54.803Z,8.70
2023-04-30T07:19:02.862Z,9.57
2023-04-30T07:21:10.348Z,9.77
2023-04-30T07:23:17.884Z,10.57
2023-04-30T07:25:25.372Z,9.43
2023-04-30T07:27:32.966Z,9.68
2023-04-30T07:29:41.936Z,9.85
2023-04-30T07:31:49.385Z,8.25
2023-04-30T07:33:57.016Z,9.10
2023-04-30T07:36:04.503Z,9.38
2023-04-30T07:38:11.842Z,12.35
2023-04-30T07:40:34.497Z,8.85
2023-04-30T07:42:43.971Z,8.73
2023-04-30T07:44:53.921Z,10.45
2023-04-30T07:47:01.201Z,8.23
2023-04-30T07:49:08.816Z,8.48
2023-04-30T07:51:16.081Z,8.02
2023-04-30T07:53:23.666Z,10.07
2023-04-30T07:55:31.167Z,9.45
2023-04-30T07:57:38.902Z,8.23
2023-04-30T07:59:45.980Z,9.80
2023-04-30T08:01:55.105Z,13.13
2023-04-30T08:04:02.606Z,13.00
2023-04-30T08:06:10.363Z,11.95
2023-04-30T08:08:17.528Z,13.10
2023-04-30T08:10:25.188Z,7.95
2023-04-30T08:12:32.352Z,7.68
2023-04-30T08:14:39.993Z,8.20
2023-04-30T08:16:47.240Z,7.88
2023-04-30T08:18:56.557Z,6.97
2023-04-30T08:21:04.916Z,7.97
2023-04-30T08:23:12.595Z,7.28
2023-04-30T08:25:19.902Z,8.00
2023-04-30T08:27:27.640Z,7.85
2023-04-30T08:29:34.771Z,6.90
2023-04-30T08:31:42.309Z,9.48
2023-04-30T08:33:49.542Z,10.80
2023-04-30T08:35:58.823Z,10.13
2023-04-30T08:38:06.058Z,7.47
2023-04-30T08:40:15.144Z,8.02
2023-04-30T08:42:25.291Z,7.85
2023-04-30T08:44:34.108Z,8.18
2023-04-30T08:46:45.695Z,8.55
2023-04-30T08:48:53.636Z,7.90
2023-04-30T08:51:04.313Z,8.80
2023-04-30T08:53:13.734Z,13.20
2023-04-30T08:55:21.365Z,8.13
2023-04-30T08:57:29.223Z,8.52
2023-04-30T08:59:36.459Z,9.43
2023-04-30T09:01:44.745Z,8.88
2023-04-30T09:03:52.254Z,8.63
2023-04-30T09:06:01.842Z,8.13
2023-04-30T09:08:10.362Z,10.88
2023-04-30T09:10:21.283Z,7.22
2023-04-30T09:12:28.504Z,7.05
2023-04-30T09:14:41.166Z,9.55
2023-04-30T09:16:55.824Z,8.95
2023-04-30T09:19:03.669Z,9.45
2023-04-30T09:21:12.694Z,11.60
2023-04-30T09:23:20.091Z,7.50
2023-04-30T09:25:43.291Z,7.88
2023-04-30T09:27:50.622Z,8.32
2023-04-30T09:29:57.734Z,7.70
2023-04-30T09:32:12.819Z,6.70
2023-04-30T09:34:20.154Z,7.07
2023-04-30T09:36:29.334Z,6.63
2023-04-30T09:38:37.181Z,7.50
2023-04-30T09:40:46.257Z,8.00
2023-04-30T09:43:03.432Z,15.82
2023-04-30T09:45:14.140Z,9.90
2023-04-30T09:47:22.526Z,9.00
2023-04-30T09:49:30.140Z,7.72
2023-04-30T09:51:38.755Z,6.80
2023-04-30T09:53:47.422Z,8.20
2023-04-30T09:55:57.365Z,7.65
2023-04-30T09:58:08.296Z,27.77
2023-04-30T10:00:16.502Z,22.75
2023-04-30T10:02:24.336Z,10.55
2023-04-30T10:04:34.751Z,7.50
2023-04-30T10:06:45.430Z,10.98
2023-04-30T10:08:54.743Z,8.40
2023-04-30T10:11:07.103Z,9.88
2023-04-30T10:13:18.238Z,11.48
2023-04-30T10:15:28.940Z,8.07
2023-04-30T10:17:42.003Z,10.48
2023-04-30T10:19:53.209Z,7.88
2023-04-30T10:22:02.675Z,8.25
2023-04-30T10:24:11.436Z,8.10
2023-04-30T10:26:19.185Z,7.07
2023-04-30T10:28:27.953Z,8.15
2023-04-30T10:30:35.796Z,8.43
2023-04-30T10:32:47.536Z,11.23
2023-04-30T10:35:03.315Z,10.27
2023-04-30T10:37:19.663Z,8.20
2023-04-30T10:39:28.634Z,8.25
2023-04-30T10:41:36.232Z,11.38
2023-04-30T10:43:43.562Z,10.50
2023-04-30T10:45:51.352Z,10.73
2023-04-30T10:47:59.702Z,12.43
2023-04-30T10:50:07.820Z,17.55
2023-04-30T10:52:16.387Z,10.13
2023-04-30T10:54:29.914Z,14.80
2023-04-30T10:56:37.615Z,20.13
2023-04-30T10:58:45.215Z,27.25
2023-04-30T11:01:03.545Z,38.28
2023-04-30T11:03:10.745Z,33.88
2023-04-30T11:05:19.445Z,37.60
2023-04-30T11:07:31.953Z,34.72
2023-04-30T11:09:47.375Z,37.20
2023-04-30T11:12:06.381Z,29.15
2023-04-30T11:14:16.023Z,25.90
2023-04-30T11:16:23.194Z,18.60
2023-04-30T11:18:32.178Z,16.85
2023-04-30T11:20:44.387Z,19.10
2023-04-30T11:23:10.873Z,14.63
2023-04-30T11:25:23.519Z,12.38
2023-04-30T11:27:31.269Z,13.98
2023-04-30T11:29:39.525Z,18.60
2023-04-30T11:31:47.365Z,14.48
2023-04-30T11:33:55.485Z,14.80
2023-04-30T11:36:04.449Z,15.80
2023-04-30T11:38:15.572Z,14.32
2023-04-30T11:40:36.169Z,14.20
2023-04-30T11:42:47.598Z,29.17
2023-04-30T11:44:54.476Z,43.15
2023-04-30T11:47:01.932Z,50.83
2023-04-30T11:49:09.100Z,71.68
2023-04-30T11:51:23.443Z,53.92
2023-04-30T11:53:35.283Z,41.75
2023-04-30T11:57:53.334Z,30.02
2023-04-30T12:00:11.008Z,26.95
2023-04-30T12:02:20.421Z,20.58
2023-04-30T12:04:27.670Z,16.67
2023-04-30T12:06:40.418Z,17.55
2023-04-30T12:08:49.368Z,20.27
2023-04-30T12:10:56.714Z,20.30
2023-04-30T12:15:27.796Z,18.90
2023-04-30T12:17:39.168Z,16.40
2023-04-30T12:21:53.100Z,18.40
2023-04-30T12:24:03.446Z,41.80
2023-04-30T12:26:11.237Z,17.73
2023-04-30T12:28:18.580Z,23.20
2023-04-30T12:30:27.872Z,24.92
2023-04-30T12:32:35.368Z,24.10
2023-04-30T12:34:42.777Z,20.63
2023-04-30T12:36:50.112Z,21.08
2023-04-30T12:39:10.359Z,17.20
2023-04-30T12:41:18.614Z,18.35
2023-04-30T12:43:25.853Z,24.23
2023-04-30T12:45:49.900Z,17.63
2023-04-30T12:47:58.122Z,20.58
2023-04-30T12:50:05.980Z,16.95
2023-04-30T12:52:14.250Z,15.85
2023-04-30T12:54:31.298Z,17.52
2023-04-30T12:56:38.116Z,16.33
2023-04-30T12:58:48.371Z,14.30
2023-04-30T13:00:55.910Z,19.23
2023-04-30T13:03:03.197Z,20.23
2023-04-30T13:05:11.754Z,17.10
2023-04-30T13:07:20.218Z,18.60
2023-04-30T13:09:28.888Z,17.52
2023-04-30T13:11:36.026Z,19.35
2023-04-30T13:13:43.298Z,16.45
2023-04-30T13:15:50.697Z,17.10
2023-04-30T13:17:58.250Z,20.60
2023-04-30T13:20:05.882Z,17.42
2023-04-30T13:22:13.010Z,18.98
2023-04-30T13:24:20.383Z,17.95
2023-04-30T13:26:29.458Z,20.92
2023-04-30T13:28:36.595Z,19.98
2023-04-30T13:30:43.874Z,17.10
2023-04-30T13:32:50.977Z,24.85
2023-04-30T13:34:59.466Z,39.85
2023-04-30T13:37:06.495Z,67.28
2023-04-30T13:39:14.043Z,76.72
2023-04-30T13:41:21.784Z,67.43
2023-04-30T13:43:30.754Z,61.60
2023-04-30T13:45:37.853Z,47.42
2023-04-30T13:47:45.333Z,32.67
2023-04-30T13:49:52.324Z,27.58
2023-04-30T13:51:59.634Z,30.25
2023-04-30T13:54:06.889Z,29.92
2023-04-30T13:56:14.052Z,32.13
2023-04-30T13:58:21.489Z,32.15
2023-04-30T14:00:30.293Z,39.40
2023-04-30T14:02:37.800Z,40.67
2023-04-30T14:04:51.733Z,27.45
2023-04-30T14:07:09.571Z,31.77
2023-04-30T14:09:16.851Z,30.85
2023-04-30T14:11:23.726Z,25.70
2023-04-30T14:13:30.856Z,27.15
2023-04-30T14:15:39.731Z,23.90
2023-04-30T14:17:46.900Z,19.92
2023-04-30T14:19:54.284Z,21.17
2023-04-30T14:22:01.590Z,19.25
2023-04-30T14:24:09.117Z,19.15
2023-04-30T14:26:16.509Z,16.27
2023-04-30T14:28:23.589Z,17.55
2023-04-30T14:30:30.920Z,19.08
2023-04-30T14:32:39.751Z,19.30
2023-04-30T14:34:47.123Z,26.42
2023-04-30T14:36:54.359Z,21.88
2023-04-30T14:39:01.495Z,20.75
2023-04-30T14:41:08.359Z,18.65
2023-04-30T14:43:15.951Z,19.27
2023-04-30T14:45:23.048Z,17.88
2023-04-30T14:47:30.990Z,18.80
2023-04-30T14:49:40.731Z,19.27
2023-04-30T14:51:47.599Z,19.45
2023-04-30T14:53:58.159Z,21.73
2023-04-30T14:56:05.504Z,22.50
2023-04-30T14:58:13.354Z,19.85
2023-04-30T15:00:21.191Z,19.45
2023-04-30T15:02:28.619Z,19.35
2023-04-30T15:04:35.756Z,22.08
2023-04-30T15:06:45.007Z,23.20
2023-04-30T15:08:51.860Z,21.27
2023-04-30T15:10:59.615Z,25.85
2023-04-30T15:13:07.199Z,22.33
2023-04-30T15:15:16.243Z,28.23
2023-04-30T15:17:25.782Z,25.00
2023-04-30T15:19:33.916Z,26.40
2023-04-30T15:21:40.738Z,22.92
2023-04-30T15:23:49.612Z,27.10
2023-04-30T15:25:57.918Z,23.60
2023-04-30T15:28:05.305Z,23.15
2023-04-30T15:30:13.507Z,19.67
2023-04-30T15:32:20.329Z,20.02
2023-04-30T15:34:27.516Z,19.23
2023-04-30T15:36:34.814Z,18.48
2023-04-30T15:38:42.132Z,22.17
2023-04-30T15:40:50.803Z,24.58
2023-04-30T15:42:57.936Z,27.55
2023-04-30T15:45:04.955Z,27.70
2023-04-30T15:47:12.562Z,25.83
2023-04-30T15:49:19.623Z,29.10
2023-04-30T15:51:27.119Z,24.10
2023-04-30T15:53:33.946Z,22.90
2023-04-30T15:55:41.481Z,20.77
2023-04-30T15:57:50.253Z,21.80
2023-04-30T15:59:58.520Z,23.33
2023-04-30T16:02:05.837Z,20.38
2023-04-30T16:04:13.169Z,19.42
2023-04-30T16:06:20.600Z,22.48
2023-04-30T16:08:27.749Z,20.73
2023-04-30T16:10:34.569Z,20.63
2023-04-30T16:12:42.262Z,16.55
2023-04-30T16:14:51.082Z,16.88
2023-04-30T16:16:58.597Z,18.05
2023-04-30T16:19:05.853Z,18.52
2023-04-30T16:21:14.112Z,19.73
2023-04-30T16:23:21.140Z,17.52
2023-04-30T16:25:28.789Z,19.90
2023-04-30T16:27:37.312Z,21.17
2023-04-30T16:29:44.832Z,17.42
2023-04-30T16:31:53.758Z,19.73
2023-04-30T16:34:01.243Z,21.25
2023-04-30T16:36:08.373Z,18.50
2023-04-30T16:38:15.973Z,19.42
2023-04-30T16:40:22.990Z,17.40
2023-04-30T16:42:31.919Z,20.15
2023-04-30T16:44:39.007Z,18.17
2023-04-30T16:46:46.175Z,24.10
2023-04-30T16:48:54.995Z,17.83
2023-04-30T16:51:02.175Z,17.67
2023-04-30T16:53:10.884Z,20.60
2023-04-30T16:55:18.694Z,15.63
2023-04-30T16:57:26.442Z,18.52
2023-04-30T16:59:33.669Z,16.65
2023-04-30T17:01:41.168Z,18.40
2023-04-30T17:03:48.402Z,16.83
2023-04-30T17:05:58.287Z,18.73
2023-04-30T17:08:05.107Z,20.05
2023-04-30T17:10:13.694Z,19.92
2023-04-30T17:12:20.544Z,17.30
2023-04-30T17:14:27.938Z,19.13
2023-04-30T17:16:34.908Z,18.40
2023-04-30T17:18:42.305Z,19.67
2023-04-30T17:20:50.713Z,18.70
2023-04-30T17:25:19.764Z,17.75
2023-04-30T17:27:28.174Z,16.58
2023-04-30T17:29:35.305Z,16.55
2023-04-30T17:31:42.560Z,17.23
2023-04-30T17:33:49.921Z,17.92
2023-04-30T17:35:57.206Z,18.33
2023-04-30T17:38:05.720Z,19.25
2023-04-30T17:40:13.778Z,23.63
2023-04-30T17:42:20.864Z,18.85
2023-04-30T17:44:28.257Z,19.13
2023-04-30T17:46:35.434Z,17.23
2023-04-30T17:48:42.976Z,17.55
2023-04-30T17:50:50.474Z,18.30
2023-04-30T17:52:58.911Z,18.33
2023-04-30T17:55:08.750Z,18.08
2023-04-30T17:57:16.144Z,18.42
2023-04-30T17:59:23.326Z,18.23
2023-04-30T18:01:30.813Z,23.20
2023-04-30T18:03:38.851Z,19.85
2023-04-30T18:05:46.254Z,20.88
2023-04-30T18:07:53.432Z,16.58
2023-04-30T18:10:00.766Z,20.35
2023-04-30T18:12:09.743Z,23.83
2023-04-30T18:14:16.834Z,20.92
2023-04-30T18:16:23.751Z,20.13
2023-04-30T18:18:30.992Z,18.10
2023-04-30T18:20:38.015Z,22.27
2023-04-30T18:22:45.622Z,18.60
2023-04-30T18:24:54.497Z,20.42
2023-04-30T18:27:02.017Z,18.65
2023-04-30T18:29:10.787Z,19.08
2023-04-30T18:31:18.315Z,18.90
2023-04-30T18:33:25.463Z,22.13
2023-04-30T18:35:33.052Z,21.05
2023-04-30T18:37:40.116Z,20.02
2023-04-30T18:39:47.453Z,21.42
2023-04-30T18:41:54.744Z,21.90
2023-04-30T18:44:02.277Z,20.88
2023-04-30T18:46:10.972Z,20.33
2023-04-30T18:48:20.030Z,22.35
2023-04-30T18:50:28.384Z,21.15
2023-04-30T18:52:35.920Z,21.02
2023-04-30T18:54:45.366Z,19.80
2023-04-30T18:56:52.738Z,17.75
2023-04-30T18:58:59.625Z,19.35
2023-04-30T19:01:09.489Z,21.30
2023-04-30T19:03:18.358Z,22.20
2023-04-30T19:05:25.926Z,27.45
2023-04-30T19:07:32.950Z,20.83
2023-04-30T19:09:40.346Z,18.08
2023-04-30T19:11:47.478Z,18.27
2023-04-30T19:13:54.812Z,17.20
2023-04-30T19:16:03.365Z,22.25
2023-04-30T19:18:13.734Z,19.80
2023-04-30T19:20:22.648Z,22.48
2023-04-30T19:22:29.526Z,23.90
2023-04-30T19:24:37.050Z,23.67
2023-04-30T19:26:44.347Z,24.27
2023-04-30T19:28:51.580Z,22.77
2023-04-30T19:30:59.360Z,25.60
2023-04-30T19:33:06.878Z,26.48
2023-04-30T19:35:14.094Z,26.92
2023-04-30T19:37:23.073Z,25.50
2023-04-30T19:39:35.010Z,25.23
2023-04-30T19:41:42.468Z,31.92
2023-04-30T19:43:49.680Z,33.45
2023-04-30T19:45:57.469Z,32.63
2023-04-30T19:48:05.104Z,34.00
2023-04-30T19:50:12.886Z,31.27
2023-04-30T19:52:21.838Z,33.20
2023-04-30T19:54:29.286Z,40.08
2023-04-30T19:56:37.071Z,26.33
2023-04-30T19:58:44.942Z,34.58
2023-04-30T20:00:52.370Z,34.63
2023-04-30T20:03:02.275Z,32.67
2023-04-30T20:05:11.226Z,29.13
2023-04-30T20:07:19.741Z,28.65
2023-04-30T20:09:28.762Z,29.40
2023-04-30T20:11:35.535Z,31.38
2023-04-30T20:13:42.768Z,33.15
2023-04-30T20:15:50.177Z,39.20
2023-04-30T20:17:57.603Z,34.25
2023-04-30T20:20:04.928Z,31.10
2023-04-30T20:22:14.143Z,30.35
2023-04-30T20:24:22.622Z,32.22
2023-04-30T20:26:31.748Z,32.42
2023-04-30T20:28:39.489Z,34.17
2023-04-30T20:30:49.035Z,34.10
2023-04-30T20:32:56.465Z,34.85
2023-04-30T20:35:03.801Z,31.80
2023-04-30T20:37:10.939Z,32.80
2023-04-30T20:39:18.393Z,33.05
2023-04-30T20:41:25.497Z,32.05
2023-04-30T20:43:34.278Z,32.92
2023-04-30T20:45:41.860Z,33.58
2023-04-30T20:47:48.771Z,35.10
2023-04-30T20:49:56.049Z,32.65
2023-04-30T20:52:03.201Z,34.35
2023-04-30T20:54:11.355Z,34.28
2023-04-30T20:56:18.384Z,31.85
2023-04-30T20:58:25.470Z,32.03
2023-04-30T21:00:34.391Z,31.63
2023-04-30T21:02:41.613Z,31.40
2023-04-30T21:04:48.804Z,32.20
2023-04-30T21:06:56.248Z,28.58
2023-04-30T21:09:03.368Z,34.80
2023-04-30T21:11:10.502Z,31.33
2023-04-30T21:13:18.089Z,34.92
2023-04-30T21:15:25.528Z,36.85
2023-04-30T21:17:34.395Z,37.03
2023-04-30T21:19:41.530Z,38.28
2023-04-30T21:21:48.410Z,34.35
2023-04-30T21:23:56.215Z,34.22
2023-04-30T21:26:03.262Z,33.15
2023-04-30T21:28:10.618Z,34.97
2023-04-30T21:30:18.120Z,38.08
2023-04-30T21:32:25.055Z,33.30
2023-04-30T21:34:36.155Z,33.95
2023-04-30T21:36:43.251Z,35.00
2023-04-30T21:38:50.789Z,30.67
2023-04-30T21:40:58.011Z,31.50
2023-04-30T21:43:05.093Z,28.67
2023-04-30T21:45:12.793Z,30.42
2023-04-30T21:47:19.985Z,30.25
2023-04-30T21:49:27.136Z,30.15
2023-04-30T21:51:37.405Z,30.08
2023-04-30T21:53:44.556Z,32.88
2023-04-30T21:55:51.708Z,31.17
2023-04-30T21:57:58.992Z,30.83
2023-04-30T22:00:07.503Z,30.25
2023-04-30T22:02:23.752Z,36.30
2023-04-30T22:04:31.441Z,31.85
2023-04-30T22:06:40.561Z,32.35
2023-04-30T22:08:47.495Z,32.70
2023-04-30T22:10:59.893Z,34.00
2023-04-30T22:13:06.776Z,30.67
2023-04-30T22:15:15.081Z,36.50
2023-04-30T22:17:22.183Z,33.03
2023-04-30T22:19:29.605Z,37.55
2023-04-30T22:21:36.739Z,39.78
2023-04-30T22:23:45.900Z,36.30
2023-04-30T22:25:53.249Z,36.28
2023-04-30T22:28:00.569Z,40.88
2023-04-30T22:30:08.059Z,37.85
2023-04-30T22:32:15.706Z,38.67
2023-04-30T22:34:24.266Z,44.35
2023-04-30T22:36:31.601Z,35.10
2023-04-30T22:38:38.692Z,33.60
2023-04-30T22:40:47.894Z,39.75
2023-04-30T22:42:55.455Z,38.05
2023-04-30T22:45:03.258Z,43.15
2023-04-30T22:47:10.252Z,38.38
2023-04-30T22:49:29.842Z,39.58
2023-04-30T22:51:38.666Z,36.90
2023-04-30T22:53:46.077Z,36.00
2023-04-30T22:55:55.846Z,35.85
2023-04-30T22:58:03.079Z,33.92
2023-04-30T23:00:11.489Z,40.67
2023-04-30T23:02:18.839Z,37.50
2023-04-30T23:04:25.753Z,30.85
2023-04-30T23:06:33.161Z,29.40
2023-04-30T23:08:40.231Z,31.10
2023-04-30T23:10:48.324Z,36.75
2023-04-30T23:12:57.548Z,30.23
2023-04-30T23:15:05.038Z,38.85
2023-04-30T23:17:11.914Z,35.35
2023-04-30T23:19:19.042Z,36.50
2023-04-30T23:21:25.917Z,34.17
2023-04-30T23:23:33.306Z,33.90
2023-04-30T23:25:41.101Z,37.15
2023-04-30T23:27:48.438Z,34.88
2023-04-30T23:29:57.831Z,34.47
2023-04-30T23:32:05.428Z,37.67
2023-04-30T23:34:12.652Z,35.08
2023-04-30T23:36:19.940Z,37.53
2023-04-30T23:38:27.159Z,35.22
2023-04-30T23:40:35.093Z,36.70
2023-04-30T23:42:42.496Z,38.42
2023-04-30T23:44:49.578Z,32.65
2023-04-30T23:46:58.656Z,33.40
2023-04-30T23:49:06.036Z,24.45
2023-04-30T23:51:13.535Z,28.80
2023-04-30T23:53:20.915Z,28.75
2023-04-30T23:55:27.792Z,23.77
2023-04-30T23:57:34.914Z,25.42
2023-04-30T23:59:43.531Z,20.42
